Miami, FL

6:14 AM EDT on July 23, 2016 (GMT -0400)
Little Havana-West Flagler Street in Miami Florida | | Change Station

Elev 13 ft 25.77 °N, 80.25 °W | Updated 1 minute ago

Scattered Clouds
Scattered Clouds
75.6 °F
Feels Like 75 °F
N
0.0
Wind Variable Wind from West
Gusts 0.0 mph

Today
High -- | Low -- °F
--% Chance of Precip.
Yesterday
High -- | Low -- °F
Precip. -- in
Pressure 30.03 in
Visibility 10.0 miles
Clouds Few 2000 ft
Scattered Clouds 25000 ft
Heat Index 75 °F
Dew Point 74 °F
Humidity 94%
Rainfall 0.00 in
Snow Depth Not available.
6:43 AM 8:11 PM
Waning Gibbous, 86% visible
METAR KMIA 230953Z 00000KT 10SM FEW020 SCT250 25/23 A3002 RMK AO2 SLP167 T02500233 $
Pressure 30.03 in
Visibility 10.0 miles
Clouds Few 2000 ft
Scattered Clouds 25000 ft
Heat Index 75 °F
Dew Point 74 °F
Humidity 94%
Rainfall 0.00 in
Snow Depth Not available.
6:43 AM 8:11 PM
Waning Gibbous, 86% visible
METAR KMIA 230953Z 00000KT 10SM FEW020 SCT250 25/23 A3002 RMK AO2 SLP167 T02500233 $

10-Day Weather Forecast

Almanac

Astronomy

Jul. 23, 2016 Rise Set
Actual Time
Civil Twilight
Nautical Twilight
Astronomical Twilight
Moon
Length of Visible Light
Length of Day
Tomorrow will be .
, % of the Moon is Illuminated

Today's Extremes

State Highs State Lows

Community

WunderPhotos

Upload Photos

1,926,789 photos uploaded!

WunderBlog® & News

Nearby

Air Quality

  Air Quality AQ Index Pollutant
Not available.

Snow Depth

Station Depth Elevation

Earthquake Activity

City Distance Mag. Time & Date
Minimum magnitude displayed is 2.5.

Coastal Water Temperatures

Place Temperature

Stations

Nearby Weather Stations

Station Location Temp. Windchill Dew Point Humidity Wind Precip. Elev Updated Type
                   

Watches & Warnings

There are currently no watches in effect.